メインページ
METAR-TAF:

METAR-TAF

空港 :

ノヴォシビルスク, ロシア

トルマチョーヴォ空港

緯度: 55-01N, 経度: 082-38E, 海抜: 111m

現時点の気象観測

当レポートは23分前の17:00(UTC)に作成
西/北西の風 14kt
気温 -1°C
湿度 74%
気圧 1019 hPa
視程10km以上
高度2000ftの曇り, 積乱雲.

METAR: UNNT 251700Z 29007MPS 9999 OVC020CB M01/M05 Q1019 R25/290150 R34/290150 NOSIG RMK QFE754/1006

時間: 00:23 (17:23 UTC)

予報

当レポートは2時間47分前の14:36(UTC)に作成
予報は25日の 15時(UTC)から 26日の 15時(UTC)まで有効
西/南西の風 12kt、最大23ktの突風を伴う
視程10km以上
高度1500ftの千切れ雲あり, 積乱雲.
25日の 15時(UTC)から 25日の 20時(UTC)まで一時的に
視程: 4000m
高度500ftの雲は散在している
高度1100ftの千切れ雲あり, 積乱雲.
弱いにわか雪, 雨
25日の 2100時(UTC)から
西/南西の風 6kt、最大16ktの突風を伴う
視程: 4000m
高度1100ftの千切れ雲あり, 積乱雲.
25日の 21時(UTC)から 26日の 04時(UTC)まで一時的に
視程: 0500m
高度200ftの雲は散在している
高度1100ftの千切れ雲あり, 積乱雲.
着氷性の霧
26日の 0400時(UTC)から
の風 6kt、最大16ktの突風を伴う
視程10km以上
高度2000ftの千切れ雲あり, 積乱雲.

TAF: UNNT 251436Z 2515/2615 25006G12MPS 9999 BKN015CB TEMPO 2515/2520 4000 -SHSNRA SCT005 BKN011CB FM252100 24003G08MPS 4000 BR BKN011CB TEMPO 2521/2604 0500 FZFG SCT002 BKN011CB FM260400 17003G08MPS 9999 BKN020CB

4,000以上の空港の気象観測と天気予報(METAR報とTAF報)

利用可能な観測所は地図上に黄色い丸と赤い丸で示す。

丸の上にカーソルを重ねると観測所名を参照できる。

次にクリックすると気象観測と天気予報を参照できる。

マップの切り替え:黒色「×」印の緑ボタンをクリックして拡大、「-」印の緑ボタンをクリックして縮小、緑色の三角印をクリックして隣りの地図に切り替え


METAR-TAF: